sensor_id;sensor_type;location;lat;lon;timestamp;pressure;altitude;pressure_sealevel;temperature;humidity
26915;BME280;14480;52.608;13.416;2023-05-03T08:07:10;143476.31;;;-2.09;57.63
26915;BME280;14480;52.608;13.416;2023-05-03T08:12:13;143276.44;;;-2.90;59.97
26915;BME280;14480;52.608;13.416;2023-05-03T08:17:17;143177.19;;;-3.31;61.08
26915;BME280;14480;52.608;13.416;2023-05-03T08:22:25;142904.38;;;-4.43;65.35
26915;BME280;14480;52.608;13.416;2023-05-03T08:27:29;142849.88;;;-4.65;65.35
26915;BME280;14480;52.608;13.416;2023-05-03T08:32:32;142956.47;;;-4.22;65.25
26915;BME280;14480;52.608;13.416;2023-05-03T08:37:38;143055.66;;;-3.81;65.08
26915;BME280;14480;52.608;13.416;2023-05-03T08:42:43;143077.94;;;-3.72;63.82
26915;BME280;14480;52.608;13.416;2023-05-03T08:47:51;143018.44;;;-3.96;64.19
26915;BME280;14480;52.608;13.416;2023-05-03T08:52:57;142894.50;;;-4.47;64.98
26915;BME280;14480;52.608;13.416;2023-05-03T08:58:01;143073.00;;;-3.74;65.58
26915;BME280;14480;52.608;13.416;2023-05-03T09:03:05;143204.50;;;-3.20;63.38
26915;BME280;14480;52.608;13.416;2023-05-03T09:08:11;143249.16;;;-3.02;62.28
26915;BME280;14480;52.608;13.416;2023-05-03T09:13:17;143277.69;;;-2.90;61.02
26915;BME280;14480;52.608;13.416;2023-05-03T09:18:21;143267.78;;;-2.94;60.93
26915;BME280;14480;52.608;13.416;2023-05-03T09:23:29;143127.56;;;-3.52;60.34
26915;BME280;14480;52.608;13.416;2023-05-03T09:28:39;143137.47;;;-3.47;60.27
26915;BME280;14480;52.608;13.416;2023-05-03T09:33:43;143063.09;;;-3.78;62.69
26915;BME280;14480;52.608;13.416;2023-05-03T09:38:48;143037.06;;;-3.89;64.12
26915;BME280;14480;52.608;13.416;2023-05-03T09:43:54;142951.50;;;-4.24;64.20
26915;BME280;14480;52.608;13.416;2023-05-03T09:49:04;142986.22;;;-4.09;63.50
26915;BME280;14480;52.608;13.416;2023-05-03T09:54:10;142960.16;;;-4.20;62.02
26915;BME280;14480;52.608;13.416;2023-05-03T09:59:14;143035.81;;;-3.89;61.54
26915;BME280;14480;52.608;13.416;2023-05-03T10:04:18;142993.63;;;-4.06;61.28
26915;BME280;14480;52.608;13.416;2023-05-03T10:09:25;143233.03;;;-3.08;63.24
26915;BME280;14480;52.608;13.416;2023-05-03T10:14:36;143380.72;;;-2.48;61.37
26915;BME280;14480;52.608;13.416;2023-05-03T10:19:47;143478.84;;;-2.08;60.36
26915;BME280;14480;52.608;13.416;2023-05-03T10:25:07;143466.41;;;-2.13;59.20
26915;BME280;14480;52.608;13.416;2023-05-03T10:30:25;143503.66;;;-1.97;58.24
26915;BME280;14480;52.608;13.416;2023-05-03T10:35:30;143215.66;;;-3.15;60.53
26915;BME280;14480;52.608;13.416;2023-05-03T10:40:41;143228.09;;;-3.10;61.27
26915;BME280;14480;52.608;13.416;2023-05-03T10:45:45;143328.59;;;-2.69;67.28
26915;BME280;14480;52.608;13.416;2023-05-03T10:50:50;143359.59;;;-2.56;61.38
26915;BME280;14480;52.608;13.416;2023-05-03T10:56:02;143342.25;;;-2.63;59.55
26915;BME280;14480;52.608;13.416;2023-05-03T11:01:08;143169.78;;;-3.34;59.61
26915;BME280;14480;52.608;13.416;2023-05-03T11:06:27;143343.50;;;-2.63;60.79
26915;BME280;14480;52.608;13.416;2023-05-03T11:11:35;143311.22;;;-2.76;60.60
26915;BME280;14480;52.608;13.416;2023-05-03T11:16:40;143410.53;;;-2.36;60.03
26915;BME280;14480;52.608;13.416;2023-05-03T11:21:49;143451.53;;;-2.19;58.42
26915;BME280;14480;52.608;13.416;2023-05-03T11:26:56;143424.22;;;-2.30;57.73
26915;BME280;14480;52.608;13.416;2023-05-03T11:32:09;143552.09;;;-1.78;73.75
26915;BME280;14480;52.608;13.416;2023-05-03T11:37:13;143790.75;;;-0.80;68.96
26915;BME280;14480;52.608;13.416;2023-05-03T11:42:20;143982.25;;;-0.02;60.41
26915;BME280;14480;52.608;13.416;2023-05-03T11:47:28;143888.97;;;-0.40;61.26
26915;BME280;14480;52.608;13.416;2023-05-03T11:52:31;143935.00;;;-0.21;66.48
26915;BME280;14480;52.608;13.416;2023-05-03T11:57:40;144056.91;;;0.29;62.75
26915;BME280;14480;52.608;13.416;2023-05-03T12:02:46;144134.09;;;0.61;57.88
26915;BME280;14480;52.608;13.416;2023-05-03T12:07:50;144070.56;;;0.35;58.21
26915;BME280;14480;52.608;13.416;2023-05-03T12:12:56;143841.69;;;-0.59;52.03
26915;BME280;14480;52.608;13.416;2023-05-03T12:18:07;143559.53;;;-1.74;56.12
26915;BME280;14480;52.608;13.416;2023-05-03T12:23:12;143594.38;;;-1.60;56.61
26915;BME280;14480;52.608;13.416;2023-05-03T12:28:19;143666.41;;;-1.31;57.61
26915;BME280;14480;52.608;13.416;2023-05-03T12:33:23;143699.97;;;-1.17;56.04
26915;BME280;14480;52.608;13.416;2023-05-03T12:38:30;143603.06;;;-1.57;55.34
26915;BME280;14480;52.608;13.416;2023-05-03T12:43:40;143620.47;;;-1.50;56.81
26915;BME280;14480;52.608;13.416;2023-05-03T12:48:44;143711.19;;;-1.12;56.36
26915;BME280;14480;52.608;13.416;2023-05-03T12:53:54;143518.56;;;-1.91;56.70
26915;BME280;14480;52.608;13.416;2023-05-03T12:59:04;143611.72;;;-1.53;57.19
26915;BME280;14480;52.608;13.416;2023-05-03T13:04:27;143651.53;;;-1.37;57.12
26915;BME280;14480;52.608;13.416;2023-05-03T13:09:34;143681.34;;;-1.25;58.49
26915;BME280;14480;52.608;13.416;2023-05-03T13:14:59;143803.16;;;-0.75;63.29
26915;BME280;14480;52.608;13.416;2023-05-03T13:20:06;143865.31;;;-0.49;59.35
26915;BME280;14480;52.608;13.416;2023-05-03T13:25:11;143888.97;;;-0.40;57.40
26915;BME280;14480;52.608;13.416;2023-05-03T13:30:18;143888.97;;;-0.40;57.16
26915;BME280;14480;52.608;13.416;2023-05-03T13:35:24;143795.72;;;-0.78;56.02
26915;BME280;14480;52.608;13.416;2023-05-03T13:40:27;143586.88;;;-1.63;57.54
26915;BME280;14480;52.608;13.416;2023-05-03T13:45:32;143557.06;;;-1.76;60.07
26915;BME280;14480;52.608;13.416;2023-05-03T13:50:38;143612.97;;;-1.53;56.36
26915;BME280;14480;52.608;13.416;2023-05-03T13:55:41;143570.75;;;-1.70;57.31
26915;BME280;14480;52.608;13.416;2023-05-03T14:00:46;143672.63;;;-1.28;59.18
26915;BME280;14480;52.608;13.416;2023-05-03T14:05:49;143773.31;;;-0.87;59.93
26915;BME280;14480;52.608;13.416;2023-05-03T14:10:52;143788.25;;;-0.81;56.95
26915;BME280;14480;52.608;13.416;2023-05-03T14:15:59;143795.72;;;-0.78;57.57
26915;BME280;14480;52.608;13.416;2023-05-03T14:21:03;143798.19;;;-0.77;55.80
26915;BME280;14480;52.608;13.416;2023-05-03T14:26:06;143769.59;;;-0.89;56.53
26915;BME280;14480;52.608;13.416;2023-05-03T14:31:11;143773.31;;;-0.87;55.88
26915;BME280;14480;52.608;13.416;2023-05-03T14:36:15;143767.13;;;-0.90;55.45
26915;BME280;14480;52.608;13.416;2023-05-03T14:41:18;143714.91;;;-1.11;55.76
26915;BME280;14480;52.608;13.416;2023-05-03T14:46:24;143723.59;;;-1.07;55.93
26915;BME280;14480;52.608;13.416;2023-05-03T14:51:27;143731.03;;;-1.04;57.44
26915;BME280;14480;52.608;13.416;2023-05-03T14:56:31;143704.97;;;-1.15;56.76
26915;BME280;14480;52.608;13.416;2023-05-03T15:01:36;143731.03;;;-1.04;56.63
26915;BME280;14480;52.608;13.416;2023-05-03T15:06:40;143758.38;;;-0.93;57.03
26915;BME280;14480;52.608;13.416;2023-05-03T15:11:44;143793.22;;;-0.79;56.90
26915;BME280;14480;52.608;13.416;2023-05-03T15:16:51;143747.22;;;-0.98;56.78
26915;BME280;14480;52.608;13.416;2023-05-03T15:21:54;143726.06;;;-1.06;58.60
26915;BME280;14480;52.608;13.416;2023-05-03T15:26:59;143754.66;;;-0.95;58.70
26915;BME280;14480;52.608;13.416;2023-05-03T15:32:05;143742.25;;;-1.00;57.54
26915;BME280;14480;52.608;13.416;2023-05-03T15:37:10;143727.31;;;-1.06;56.75
26915;BME280;14480;52.608;13.416;2023-05-03T15:42:14;143742.25;;;-1.00;59.99
26915;BME280;14480;52.608;13.416;2023-05-03T15:47:19;143791.97;;;-0.79;65.10
26915;BME280;14480;52.608;13.416;2023-05-03T15:52:23;143779.53;;;-0.84;58.72
26915;BME280;14480;52.608;13.416;2023-05-03T15:57:27;143683.84;;;-1.24;57.05
26915;BME280;14480;52.608;13.416;2023-05-03T16:02:33;143645.28;;;-1.39;57.38
26915;BME280;14480;52.608;13.416;2023-05-03T16:07:36;143652.75;;;-1.36;59.77
26915;BME280;14480;52.608;13.416;2023-05-03T16:12:41;143692.50;;;-1.20;61.04
26915;BME280;14480;52.608;13.416;2023-05-03T16:17:46;143624.19;;;-1.48;58.16
26915;BME280;14480;52.608;13.416;2023-05-03T16:22:54;143600.56;;;-1.58;58.35
26915;BME280;14480;52.608;13.416;2023-05-03T16:28:41;143576.94;;;-1.67;58.18
26915;BME280;14480;52.608;13.416;2023-05-03T16:33:46;143573.22;;;-1.69;57.57
26915;BME280;14480;52.608;13.416;2023-05-03T16:38:50;143555.81;;;-1.76;57.88
26915;BME280;14480;52.608;13.416;2023-05-03T16:43:53;143572.00;;;-1.69;57.81
26915;BME280;14480;52.608;13.416;2023-05-03T16:48:58;143579.44;;;-1.66;58.28
26915;BME280;14480;52.608;13.416;2023-05-03T16:54:02;143590.66;;;-1.62;58.69
26915;BME280;14480;52.608;13.416;2023-05-03T16:59:06;143547.16;;;-1.80;59.15
26915;BME280;14480;52.608;13.416;2023-05-03T17:04:14;143512.38;;;-1.94;58.70
26915;BME280;14480;52.608;13.416;2023-05-03T17:09:19;143480.09;;;-2.07;60.76
26915;BME280;14480;52.608;13.416;2023-05-03T17:14:23;143450.28;;;-2.19;61.45
26915;BME280;14480;52.608;13.416;2023-05-03T17:19:28;143445.28;;;-2.21;61.55
26915;BME280;14480;52.608;13.416;2023-05-03T17:24:34;143431.63;;;-2.27;61.36
26915;BME280;14480;52.608;13.416;2023-05-03T17:29:37;143422.97;;;-2.30;62.53
26915;BME280;14480;52.608;13.416;2023-05-03T17:34:45;143369.56;;;-2.52;62.11
26915;BME280;14480;52.608;13.416;2023-05-03T17:39:48;143336.06;;;-2.66;62.82
26915;BME280;14480;52.608;13.416;2023-05-03T17:44:53;143321.16;;;-2.72;62.88
26915;BME280;14480;52.608;13.416;2023-05-03T17:49:58;143297.56;;;-2.82;63.57
26915;BME280;14480;52.608;13.416;2023-05-03T17:55:01;143275.22;;;-2.91;64.12
26915;BME280;14480;52.608;13.416;2023-05-03T18:00:05;143226.84;;;-3.11;63.46
26915;BME280;14480;52.608;13.416;2023-05-03T18:05:15;143203.25;;;-3.20;64.71
26915;BME280;14480;52.608;13.416;2023-05-03T18:10:22;143128.81;;;-3.51;65.73
26915;BME280;14480;52.608;13.416;2023-05-03T18:15:25;143099.06;;;-3.63;65.56
26915;BME280;14480;52.608;13.416;2023-05-03T18:20:32;143069.28;;;-3.75;65.81
26915;BME280;14480;52.608;13.416;2023-05-03T18:25:35;143051.91;;;-3.83;65.13
26915;BME280;14480;52.608;13.416;2023-05-03T18:30:39;143009.78;;;-4.00;65.65
26915;BME280;14480;52.608;13.416;2023-05-03T18:35:44;142960.16;;;-4.20;66.13
26915;BME280;14480;52.608;13.416;2023-05-03T18:40:48;142921.75;;;-4.36;66.87
26915;BME280;14480;52.608;13.416;2023-05-03T18:45:52;142872.19;;;-4.56;68.07
26915;BME280;14480;52.608;13.416;2023-05-03T18:50:57;142828.84;;;-4.74;68.67
26915;BME280;14480;52.608;13.416;2023-05-03T18:56:03;142780.50;;;-4.94;68.71
26915;BME280;14480;52.608;13.416;2023-05-03T19:01:06;142730.94;;;-5.14;70.94
26915;BME280;14480;52.608;13.416;2023-05-03T19:06:11;142690.09;;;-5.31;74.12
26915;BME280;14480;52.608;13.416;2023-05-03T19:11:15;142643.03;;;-5.50;74.51
26915;BME280;14480;52.608;13.416;2023-05-03T19:16:19;142624.44;;;-5.58;74.58
26915;BME280;14480;52.608;13.416;2023-05-03T19:21:24;142589.78;;;-5.72;76.89
26915;BME280;14480;52.608;13.416;2023-05-03T19:26:27;142548.97;;;-5.89;78.41
26915;BME280;14480;52.608;13.416;2023-05-03T19:31:31;142510.59;;;-6.05;80.62
26915;BME280;14480;52.608;13.416;2023-05-03T19:36:36;142480.91;;;-6.17;81.52
26915;BME280;14480;52.608;13.416;2023-05-03T19:41:40;142466.09;;;-6.23;83.10
26915;BME280;14480;52.608;13.416;2023-05-03T19:46:44;142443.81;;;-6.32;83.93
26915;BME280;14480;52.608;13.416;2023-05-03T19:51:49;142424.00;;;-6.40;83.28
26915;BME280;14480;52.608;13.416;2023-05-03T19:56:55;142402.94;;;-6.49;84.28
26915;BME280;14480;52.608;13.416;2023-05-03T20:01:58;142372.03;;;-6.62;85.69
26915;BME280;14480;52.608;13.416;2023-05-03T20:07:04;142321.34;;;-6.83;86.74
26915;BME280;14480;52.608;13.416;2023-05-03T20:12:08;142292.91;;;-6.94;83.78
26915;BME280;14480;52.608;13.416;2023-05-03T20:17:11;142290.41;;;-6.95;84.20
26915;BME280;14480;52.608;13.416;2023-05-03T20:22:17;142280.53;;;-6.99;85.87
26915;BME280;14480;52.608;13.416;2023-05-03T20:27:22;142265.72;;;-7.06;85.98
26915;BME280;14480;52.608;13.416;2023-05-03T20:32:29;142234.75;;;-7.18;88.93
26915;BME280;14480;52.608;13.416;2023-05-03T20:37:34;142205.09;;;-7.30;90.73
26915;BME280;14480;52.608;13.416;2023-05-03T20:42:39;142154.44;;;-7.51;94.24
26915;BME280;14480;52.608;13.416;2023-05-03T20:47:43;142119.81;;;-7.66;95.94
26915;BME280;14480;52.608;13.416;2023-05-03T20:52:48;142103.78;;;-7.72;100.00
26915;BME280;14480;52.608;13.416;2023-05-03T20:57:53;142054.34;;;-7.93;100.00
26915;BME280;14480;52.608;13.416;2023-05-03T21:02:57;142012.34;;;-8.10;100.00
26915;BME280;14480;52.608;13.416;2023-05-03T21:08:03;141992.59;;;-8.18;100.00
26915;BME280;14480;52.608;13.416;2023-05-03T21:13:06;141954.25;;;-8.34;100.00
26915;BME280;14480;52.608;13.416;2023-05-03T21:18:10;141923.44;;;-8.46;100.00
26915;BME280;14480;52.608;13.416;2023-05-03T21:23:14;141888.88;;;-8.61;100.00
26915;BME280;14480;52.608;13.416;2023-05-03T21:28:20;141854.31;;;-8.75;100.00
26915;BME280;14480;52.608;13.416;2023-05-03T21:33:26;141849.38;;;-8.77;100.00
26915;BME280;14480;52.608;13.416;2023-05-03T21:38:33;141832.09;;;-8.84;100.00
26915;BME280;14480;52.608;13.416;2023-05-03T21:43:39;141830.84;;;-8.85;100.00
